createdAt,value
2017-11-15T00:01:42.626Z,7.10
2017-11-15T00:04:09.469Z,6.28
2017-11-15T00:06:36.216Z,6.57
2017-11-15T00:09:02.968Z,6.70
2017-11-15T00:11:29.702Z,8.15
2017-11-15T00:13:56.441Z,8.30
2017-11-15T00:16:23.179Z,8.50
2017-11-15T00:18:49.900Z,8.82
2017-11-15T00:21:16.625Z,9.07
2017-11-15T00:23:43.376Z,8.20
2017-11-15T00:26:10.174Z,8.90
2017-11-15T00:28:36.907Z,8.30
2017-11-15T00:31:03.638Z,9.80
2017-11-15T00:33:30.421Z,8.30
2017-11-15T00:35:57.133Z,6.47
2017-11-15T00:38:23.905Z,7.45
2017-11-15T00:40:50.637Z,7.22
2017-11-15T00:43:17.382Z,7.55
2017-11-15T00:45:44.132Z,6.55
2017-11-15T00:48:10.894Z,7.30
2017-11-15T00:50:37.612Z,6.68
2017-11-15T00:53:04.380Z,7.20
2017-11-15T00:55:31.115Z,7.72
2017-11-15T00:57:57.852Z,7.60
2017-11-15T01:00:24.622Z,6.30
2017-11-15T01:02:51.356Z,6.68
2017-11-15T01:05:18.274Z,7.50
2017-11-15T01:07:44.998Z,7.05
2017-11-15T01:10:11.735Z,8.30
2017-11-15T01:12:38.464Z,7.85
2017-11-15T01:15:05.239Z,8.05
2017-11-15T01:17:31.972Z,8.48
2017-11-15T01:19:58.712Z,8.43
2017-11-15T01:22:25.435Z,9.07
2017-11-15T01:24:52.161Z,7.78
2017-11-15T01:27:18.894Z,7.60
2017-11-15T01:29:45.655Z,8.50
2017-11-15T01:32:12.418Z,8.25
2017-11-15T01:34:39.152Z,8.23
2017-11-15T01:37:05.955Z,7.95
2017-11-15T01:39:32.702Z,8.90
2017-11-15T01:41:59.432Z,9.85
2017-11-15T01:44:26.219Z,9.75
2017-11-15T01:46:52.993Z,8.65
2017-11-15T01:49:19.798Z,10.75
2017-11-15T01:51:46.559Z,11.80
2017-11-15T01:54:13.315Z,10.55
2017-11-15T01:56:40.099Z,10.73
2017-11-15T01:59:06.939Z,11.12
2017-11-15T02:01:37.573Z,10.15
2017-11-15T02:04:04.305Z,12.27
2017-11-15T02:06:31.102Z,10.27
2017-11-15T02:08:57.827Z,10.40
2017-11-15T02:11:24.586Z,13.23
2017-11-15T02:13:51.340Z,12.75
2017-11-15T02:16:18.089Z,11.50
2017-11-15T02:18:44.821Z,12.10
2017-11-15T02:21:11.583Z,11.98
2017-11-15T02:23:38.328Z,13.32
2017-11-15T02:26:05.087Z,12.63
2017-11-15T02:28:31.855Z,12.00
2017-11-15T02:30:58.620Z,11.80
2017-11-15T02:33:25.352Z,12.40
2017-11-15T02:35:52.121Z,12.27
2017-11-15T02:38:18.892Z,10.82
2017-11-15T02:40:45.631Z,12.13
2017-11-15T02:43:12.417Z,11.90
2017-11-15T02:45:39.171Z,11.75
2017-11-15T02:48:05.917Z,11.00
2017-11-15T02:50:32.677Z,10.27
2017-11-15T02:52:59.433Z,12.63
2017-11-15T02:55:26.164Z,10.68
2017-11-15T02:57:52.929Z,10.35
2017-11-15T03:00:19.688Z,12.15
2017-11-15T03:02:46.421Z,9.80
2017-11-15T03:05:13.183Z,11.65
2017-11-15T03:07:39.936Z,11.50
2017-11-15T03:10:06.672Z,10.63
2017-11-15T03:12:33.457Z,9.88
2017-11-15T03:15:00.228Z,11.12
2017-11-15T03:17:26.980Z,12.07
2017-11-15T03:19:53.877Z,11.05
2017-11-15T03:22:20.628Z,11.12
2017-11-15T03:24:47.389Z,11.48
2017-11-15T03:27:14.138Z,11.38
2017-11-15T03:29:40.947Z,10.73
2017-11-15T03:32:07.726Z,12.10
2017-11-15T03:34:34.485Z,10.20
2017-11-15T03:37:01.224Z,11.15
2017-11-15T03:39:27.947Z,10.98
2017-11-15T03:41:54.686Z,10.18
2017-11-15T03:44:21.407Z,9.52
2017-11-15T03:46:48.151Z,9.10
2017-11-15T03:49:14.901Z,9.88
2017-11-15T03:51:41.629Z,9.25
2017-11-15T03:54:08.367Z,8.88
2017-11-15T03:56:35.124Z,9.35
2017-11-15T03:59:01.882Z,9.77
2017-11-15T04:01:28.612Z,9.65
2017-11-15T04:03:55.388Z,9.57
2017-11-15T04:06:22.114Z,9.23
2017-11-15T04:08:48.868Z,9.80
2017-11-15T04:11:15.616Z,9.23
2017-11-15T04:13:42.331Z,8.00
2017-11-15T04:16:09.071Z,8.25
2017-11-15T04:18:35.893Z,8.13
2017-11-15T04:21:02.651Z,7.50
2017-11-15T04:23:29.380Z,8.15
2017-11-15T04:25:56.107Z,7.75
2017-11-15T04:28:22.894Z,7.78
2017-11-15T04:30:49.607Z,7.87
2017-11-15T04:33:16.356Z,7.93
2017-11-15T04:35:43.134Z,9.80
2017-11-15T04:38:09.847Z,8.15
2017-11-15T04:40:36.595Z,9.32
2017-11-15T04:43:03.340Z,8.32
2017-11-15T04:45:30.164Z,9.35
2017-11-15T04:47:56.925Z,8.30
2017-11-15T04:50:23.648Z,9.73
2017-11-15T04:52:50.399Z,8.60
2017-11-15T04:55:17.141Z,8.27
2017-11-15T04:57:43.870Z,8.82
2017-11-15T05:00:10.591Z,8.45
2017-11-15T05:02:37.316Z,8.60
2017-11-15T05:05:04.072Z,10.20
2017-11-15T05:07:30.791Z,9.10
2017-11-15T05:09:57.525Z,8.80
2017-11-15T05:12:24.279Z,8.05
2017-11-15T05:14:51.012Z,10.18
2017-11-15T05:17:17.739Z,8.68
2017-11-15T05:19:44.464Z,8.60
2017-11-15T05:22:11.202Z,8.52
2017-11-15T05:24:37.948Z,9.23
2017-11-15T05:27:04.687Z,8.70
2017-11-15T05:29:31.434Z,8.73
2017-11-15T05:31:58.188Z,10.88
2017-11-15T05:34:24.939Z,9.80
2017-11-15T05:36:51.680Z,9.50
2017-11-15T05:39:18.411Z,10.52
2017-11-15T05:41:45.171Z,9.98
2017-11-15T05:44:11.893Z,10.32
2017-11-15T05:46:38.697Z,10.48
2017-11-15T05:49:05.436Z,9.80
2017-11-15T05:51:32.156Z,9.07
2017-11-15T05:53:58.872Z,9.00
2017-11-15T05:56:25.620Z,10.15
2017-11-15T05:58:52.340Z,8.55
2017-11-15T06:01:19.076Z,9.27
2017-11-15T06:03:45.802Z,10.20
2017-11-15T06:06:12.538Z,8.30
2017-11-15T06:08:39.281Z,8.82
2017-11-15T06:11:06.088Z,8.88
2017-11-15T06:13:32.923Z,9.18
2017-11-15T06:15:59.577Z,8.10
2017-11-15T06:18:26.362Z,7.40
2017-11-15T06:20:53.035Z,8.95
2017-11-15T06:23:19.849Z,8.43
2017-11-15T06:25:46.659Z,8.30
2017-11-15T06:28:13.244Z,7.72
2017-11-15T06:30:40.120Z,8.18
2017-11-15T06:33:06.693Z,7.90
2017-11-15T06:35:33.461Z,6.65
2017-11-15T06:38:00.147Z,6.12
2017-11-15T06:40:26.870Z,7.12
2017-11-15T06:42:53.582Z,8.40
2017-11-15T06:45:20.295Z,9.10
2017-11-15T06:47:47.027Z,9.25
2017-11-15T06:50:13.748Z,8.93
2017-11-15T06:52:40.470Z,10.95
2017-11-15T06:55:07.203Z,11.98
2017-11-15T06:57:33.939Z,13.48
2017-11-15T07:00:00.673Z,13.45
2017-11-15T07:02:27.440Z,13.18
2017-11-15T07:04:54.161Z,15.30
2017-11-15T07:07:20.876Z,15.77
2017-11-15T07:09:47.597Z,15.68
2017-11-15T07:12:14.303Z,15.27
2017-11-15T07:14:41.014Z,14.23
2017-11-15T07:17:07.738Z,15.50
2017-11-15T07:19:34.460Z,13.80
2017-11-15T07:22:01.193Z,17.02
2017-11-15T07:24:27.904Z,15.13
2017-11-15T07:26:54.624Z,17.08
2017-11-15T07:29:21.358Z,15.88
2017-11-15T07:31:48.094Z,15.57
2017-11-15T07:34:14.824Z,14.15
2017-11-15T07:36:41.545Z,16.40
2017-11-15T07:39:08.269Z,17.02
2017-11-15T07:41:34.994Z,19.00
2017-11-15T07:44:01.749Z,20.85
2017-11-15T07:46:28.478Z,19.27
2017-11-15T07:48:55.197Z,19.05
2017-11-15T07:51:21.932Z,17.27
2017-11-15T07:53:48.660Z,17.87
2017-11-15T07:56:15.388Z,20.10
2017-11-15T07:58:42.112Z,18.27
2017-11-15T08:01:08.848Z,18.65
2017-11-15T08:03:35.566Z,18.45
2017-11-15T08:06:02.292Z,17.70
2017-11-15T08:08:29.033Z,15.20
2017-11-15T08:10:55.760Z,16.75
2017-11-15T08:13:22.502Z,14.77
2017-11-15T08:15:49.224Z,15.35
2017-11-15T08:18:15.968Z,16.50
2017-11-15T08:20:42.725Z,12.18
2017-11-15T08:23:09.467Z,12.70
2017-11-15T08:25:36.205Z,11.52
2017-11-15T08:28:02.964Z,12.55
2017-11-15T08:30:29.707Z,12.57
2017-11-15T08:32:56.436Z,12.75
2017-11-15T08:35:23.149Z,10.70
2017-11-15T08:37:49.859Z,10.80
2017-11-15T08:40:16.607Z,12.43
2017-11-15T08:42:43.357Z,11.77
2017-11-15T08:45:10.104Z,12.05
2017-11-15T08:47:37.605Z,13.43
2017-11-15T08:50:05.054Z,12.73
2017-11-15T08:52:31.835Z,14.02
2017-11-15T08:54:58.581Z,13.73
2017-11-15T08:57:25.324Z,16.93
2017-11-15T08:59:52.106Z,15.33
2017-11-15T09:02:18.824Z,13.67
2017-11-15T09:04:45.545Z,13.63
2017-11-15T09:07:12.272Z,13.00
2017-11-15T09:09:39.019Z,13.03
2017-11-15T09:12:05.761Z,13.50
2017-11-15T09:14:32.507Z,14.47
2017-11-15T09:16:59.238Z,14.10
2017-11-15T09:19:25.963Z,12.90
2017-11-15T09:21:52.675Z,13.40
2017-11-15T09:24:19.395Z,15.63
2017-11-15T09:26:46.126Z,14.33
2017-11-15T09:29:12.857Z,14.40
2017-11-15T09:31:39.572Z,12.50
2017-11-15T09:34:06.303Z,12.27
2017-11-15T09:36:33.024Z,11.43
2017-11-15T09:38:59.766Z,11.77
2017-11-15T09:41:26.483Z,11.70
2017-11-15T09:43:53.208Z,14.03
2017-11-15T09:46:19.936Z,13.57
2017-11-15T09:48:46.662Z,13.03
2017-11-15T09:51:13.404Z,12.93
2017-11-15T09:53:40.131Z,12.50
2017-11-15T09:56:06.854Z,13.70
2017-11-15T09:58:33.584Z,13.10
2017-11-15T10:01:00.300Z,12.63
2017-11-15T10:03:27.028Z,13.60
2017-11-15T10:05:53.739Z,13.83
2017-11-15T10:08:20.463Z,13.30
2017-11-15T10:10:47.182Z,13.37
2017-11-15T10:13:13.894Z,14.40
2017-11-15T10:15:40.625Z,13.30
2017-11-15T10:18:07.400Z,12.57
2017-11-15T10:20:34.124Z,12.50
2017-11-15T10:23:00.856Z,12.10
2017-11-15T10:25:27.579Z,11.63
2017-11-15T10:27:54.327Z,12.63
2017-11-15T10:30:21.048Z,12.03
2017-11-15T10:32:47.808Z,12.53
2017-11-15T10:35:14.528Z,11.30
2017-11-15T10:37:41.253Z,11.20
2017-11-15T10:40:08.058Z,10.73
2017-11-15T10:42:34.788Z,9.90
2017-11-15T10:45:01.503Z,10.00
2017-11-15T10:47:28.249Z,9.83
2017-11-15T10:49:54.990Z,9.17
2017-11-15T10:52:21.726Z,8.93
2017-11-15T10:54:48.472Z,8.93
2017-11-15T10:57:15.205Z,10.97
2017-11-15T10:59:41.923Z,8.33
2017-11-15T11:02:08.664Z,6.70
2017-11-15T11:04:35.429Z,8.30
2017-11-15T11:07:02.226Z,7.10
2017-11-15T11:09:28.964Z,6.73
2017-11-15T11:11:55.678Z,6.47
2017-11-15T11:14:22.412Z,5.77
2017-11-15T11:16:49.153Z,6.53
2017-11-15T11:19:15.875Z,6.47
2017-11-15T11:21:42.606Z,6.40
2017-11-15T11:24:09.338Z,6.67
2017-11-15T11:26:36.057Z,5.20
2017-11-15T11:29:02.829Z,5.93
2017-11-15T11:31:29.536Z,5.80
2017-11-15T11:33:56.259Z,6.10
2017-11-15T11:36:22.963Z,6.57
2017-11-15T11:38:49.673Z,6.37
2017-11-15T11:41:16.395Z,7.60
2017-11-15T11:43:43.131Z,7.63
2017-11-15T11:46:09.875Z,8.23
2017-11-15T11:48:36.579Z,6.57
2017-11-15T11:51:03.299Z,7.30
2017-11-15T11:53:30.034Z,7.00
2017-11-15T11:55:56.740Z,6.87
2017-11-15T11:58:23.456Z,6.90
2017-11-15T12:00:50.224Z,6.80
2017-11-15T12:03:16.925Z,6.17
2017-11-15T12:05:43.651Z,6.17
2017-11-15T12:08:10.363Z,6.43
2017-11-15T12:10:37.095Z,6.97
2017-11-15T12:13:03.825Z,6.80
2017-11-15T12:15:30.565Z,5.40
2017-11-15T12:17:57.265Z,6.40
2017-11-15T12:20:23.984Z,6.20
2017-11-15T12:22:50.739Z,6.20
2017-11-15T12:25:17.454Z,6.70
2017-11-15T12:27:44.221Z,6.07
2017-11-15T12:30:10.956Z,5.93
2017-11-15T12:32:37.677Z,6.03
2017-11-15T12:35:04.406Z,6.50
2017-11-15T12:37:31.144Z,7.60
2017-11-15T12:39:57.874Z,6.10
2017-11-15T12:42:24.624Z,6.13
2017-11-15T12:44:51.365Z,6.33
2017-11-15T12:47:18.091Z,6.20
2017-11-15T12:49:44.912Z,7.00
2017-11-15T12:52:11.640Z,6.67
2017-11-15T12:54:49.656Z,6.00
2017-11-15T13:00:15.958Z,6.40
2017-11-15T13:02:55.487Z,7.30
2017-11-15T13:05:34.403Z,7.57
2017-11-15T13:08:03.085Z,31.40
2017-11-15T13:13:41.546Z,9.87
2017-11-15T13:33:48.675Z,7.90
2017-11-15T13:36:22.209Z,7.70
2017-11-15T13:38:57.311Z,8.17
2017-11-15T13:41:44.744Z,7.33
2017-11-15T13:44:22.760Z,9.10
2017-11-15T13:47:05.045Z,6.80
2017-11-15T13:49:52.111Z,7.80
2017-11-15T13:52:35.630Z,7.73
2017-11-15T13:55:14.944Z,7.23
2017-11-15T13:57:42.929Z,6.50
2017-11-15T14:00:25.020Z,7.90
2017-11-15T14:03:12.652Z,6.53
2017-11-15T14:05:52.996Z,7.37
2017-11-15T14:08:40.822Z,7.40
2017-11-15T14:11:08.388Z,6.90
2017-11-15T14:13:56.162Z,6.90
2017-11-15T14:16:51.712Z,6.90
2017-11-15T14:19:31.564Z,7.83
2017-11-15T14:22:09.907Z,7.87
2017-11-15T14:24:47.504Z,7.97
2017-11-15T14:27:31.519Z,8.20
2017-11-15T14:29:58.320Z,7.50
2017-11-15T14:32:25.045Z,8.80
2017-11-15T14:34:51.771Z,7.83
2017-11-15T14:37:18.641Z,8.00
2017-11-15T14:39:45.389Z,7.97
2017-11-15T14:42:12.116Z,8.23
2017-11-15T14:44:38.823Z,7.87
2017-11-15T14:47:05.548Z,7.77
2017-11-15T14:49:32.263Z,7.57
2017-11-15T14:51:59.007Z,7.07
2017-11-15T14:54:25.713Z,7.60
2017-11-15T14:56:52.433Z,7.43
2017-11-15T14:59:19.141Z,8.23
2017-11-15T15:01:45.870Z,7.30
2017-11-15T15:04:12.592Z,7.13
2017-11-15T15:06:39.296Z,7.43
2017-11-15T15:09:06.000Z,8.50
2017-11-15T15:11:32.715Z,6.97
2017-11-15T15:13:59.482Z,6.90
2017-11-15T15:16:26.215Z,7.37
2017-11-15T15:18:53.028Z,7.07
2017-11-15T15:21:19.735Z,9.80
2017-11-15T15:23:46.462Z,8.33
2017-11-15T15:26:13.184Z,8.73
2017-11-15T15:28:39.988Z,8.27
2017-11-15T15:31:06.808Z,7.13
2017-11-15T15:33:33.528Z,6.67
2017-11-15T15:36:00.256Z,7.00
2017-11-15T15:38:26.954Z,6.90
2017-11-15T15:40:53.695Z,7.27
2017-11-15T15:43:20.492Z,6.60
2017-11-15T15:45:47.224Z,7.40
2017-11-15T15:48:13.928Z,7.93
2017-11-15T15:50:40.656Z,7.97
2017-11-15T15:53:07.369Z,7.50
2017-11-15T15:55:34.080Z,8.10
2017-11-15T15:58:00.799Z,7.77
2017-11-15T16:00:27.520Z,8.00
2017-11-15T16:02:54.261Z,8.47
2017-11-15T16:05:20.994Z,6.53
2017-11-15T16:07:47.727Z,7.40
2017-11-15T16:10:14.454Z,7.83
2017-11-15T16:12:41.200Z,9.43
2017-11-15T16:15:07.913Z,8.77
2017-11-15T16:17:34.619Z,8.80
2017-11-15T16:20:01.336Z,8.17
2017-11-15T16:22:28.065Z,7.80
2017-11-15T16:24:54.788Z,8.87
2017-11-15T16:27:21.522Z,6.80
2017-11-15T16:29:48.243Z,7.57
2017-11-15T16:32:14.946Z,7.83
2017-11-15T16:34:41.671Z,8.13
2017-11-15T16:37:08.388Z,7.73
2017-11-15T16:39:35.103Z,7.40
2017-11-15T16:42:01.829Z,7.20
2017-11-15T16:44:28.560Z,8.10
2017-11-15T16:46:55.262Z,7.27
2017-11-15T16:49:22.004Z,8.27
2017-11-15T16:51:48.756Z,8.00
2017-11-15T16:54:15.564Z,8.10
2017-11-15T16:56:42.286Z,10.13
2017-11-15T16:59:09.024Z,8.80
2017-11-15T17:01:35.743Z,9.10
2017-11-15T17:04:02.503Z,9.87
2017-11-15T17:06:29.218Z,11.63
2017-11-15T17:08:55.947Z,11.93
2017-11-15T17:11:22.656Z,9.53
2017-11-15T17:13:49.429Z,10.00
2017-11-15T17:16:16.135Z,8.03
2017-11-15T17:18:42.940Z,9.30
2017-11-15T17:21:09.699Z,9.60
2017-11-15T17:23:36.428Z,10.20
2017-11-15T17:26:03.172Z,10.90
2017-11-15T17:28:29.892Z,9.20
2017-11-15T17:30:56.634Z,8.10
2017-11-15T17:33:23.368Z,9.90
2017-11-15T17:35:50.105Z,9.30
2017-11-15T17:38:16.840Z,9.80
2017-11-15T17:40:43.606Z,9.17
2017-11-15T17:43:10.350Z,9.73
2017-11-15T17:45:37.108Z,9.93
2017-11-15T17:48:03.877Z,10.93
2017-11-15T17:50:30.646Z,11.90
2017-11-15T17:52:57.391Z,9.97
2017-11-15T17:55:24.133Z,9.83
2017-11-15T17:57:50.870Z,10.97
2017-11-15T18:00:17.600Z,12.73
2017-11-15T18:02:44.800Z,12.37
2017-11-15T18:05:11.570Z,15.73
2017-11-15T18:07:38.301Z,15.13
2017-11-15T18:10:05.124Z,16.07
2017-11-15T18:12:31.834Z,14.27
2017-11-15T18:14:58.568Z,15.13
2017-11-15T18:17:25.495Z,15.10
2017-11-15T18:19:52.222Z,13.27
2017-11-15T18:22:22.479Z,14.30
2017-11-15T18:25:03.543Z,16.07
2017-11-15T18:27:38.723Z,15.40
2017-11-15T18:30:05.461Z,15.87
2017-11-15T18:32:32.191Z,15.07
2017-11-15T18:34:58.925Z,13.80
2017-11-15T18:37:25.652Z,15.40
2017-11-15T18:39:52.392Z,20.80
2017-11-15T18:42:19.130Z,29.33
2017-11-15T18:44:45.869Z,16.63
2017-11-15T18:47:12.615Z,17.30
2017-11-15T18:49:39.349Z,15.97
2017-11-15T18:52:06.115Z,17.67
2017-11-15T18:54:32.836Z,16.50
2017-11-15T18:56:59.574Z,18.47
2017-11-15T18:59:26.312Z,21.37
2017-11-15T19:01:53.050Z,21.20
2017-11-15T19:04:19.764Z,19.23
2017-11-15T19:06:46.488Z,15.20
2017-11-15T19:09:13.213Z,13.70
2017-11-15T19:11:39.947Z,14.90
2017-11-15T19:14:06.690Z,15.30
2017-11-15T19:16:33.489Z,16.80
2017-11-15T19:19:00.207Z,16.07
2017-11-15T19:21:26.980Z,15.43
2017-11-15T19:23:53.702Z,16.00
2017-11-15T19:26:20.431Z,16.77
2017-11-15T19:28:47.147Z,15.33
2017-11-15T19:31:13.874Z,15.50
2017-11-15T19:33:40.598Z,15.27
2017-11-15T19:36:07.319Z,20.00
2017-11-15T19:38:34.059Z,18.70
2017-11-15T19:41:06.989Z,17.97
2017-11-15T19:43:52.450Z,17.40
2017-11-15T19:46:25.345Z,17.20
2017-11-15T19:48:58.846Z,17.03
2017-11-15T19:51:37.244Z,17.87
2017-11-15T19:54:15.236Z,17.93
2017-11-15T19:56:53.885Z,20.10
2017-11-15T19:59:33.537Z,17.47
2017-11-15T20:02:10.563Z,17.23
2017-11-15T20:04:38.574Z,18.40
2017-11-15T20:07:14.536Z,16.97
2017-11-15T20:09:56.093Z,16.70
2017-11-15T20:12:38.330Z,17.03
2017-11-15T20:15:05.063Z,16.47
2017-11-15T20:17:32.192Z,16.90
2017-11-15T20:19:58.940Z,18.00
2017-11-15T20:22:25.677Z,16.70
2017-11-15T20:24:52.404Z,17.37
2017-11-15T20:27:19.250Z,16.90
2017-11-15T20:29:45.983Z,15.97
2017-11-15T20:32:12.712Z,17.03
2017-11-15T20:34:39.464Z,18.33
2017-11-15T20:37:06.222Z,17.37
2017-11-15T20:39:32.984Z,15.80
2017-11-15T20:41:59.728Z,18.23
2017-11-15T20:44:26.445Z,16.73
2017-11-15T20:46:53.186Z,17.37
2017-11-15T20:49:19.959Z,16.67
2017-11-15T20:51:46.688Z,16.37
2017-11-15T20:54:13.412Z,18.30
2017-11-15T20:56:40.179Z,22.20
2017-11-15T20:59:06.930Z,17.73
2017-11-15T21:01:33.664Z,18.23
2017-11-15T21:04:00.647Z,17.80
2017-11-15T21:06:27.518Z,19.27
2017-11-15T21:08:55.486Z,19.60
2017-11-15T21:11:22.256Z,18.43
2017-11-15T21:13:49.167Z,18.90
2017-11-15T21:16:15.919Z,18.70
2017-11-15T21:18:42.718Z,17.90
2017-11-15T21:21:09.466Z,19.07
2017-11-15T21:23:36.202Z,20.10
2017-11-15T21:26:02.951Z,18.00
2017-11-15T21:28:29.688Z,17.07
2017-11-15T21:30:56.420Z,18.33
2017-11-15T21:33:23.215Z,18.93
2017-11-15T21:35:49.937Z,17.73
2017-11-15T21:38:16.678Z,17.30
2017-11-15T21:40:43.433Z,19.27
2017-11-15T21:43:10.163Z,19.03
2017-11-15T21:45:39.275Z,20.57
2017-11-15T21:48:09.694Z,19.17
2017-11-15T21:50:36.421Z,18.60
2017-11-15T21:53:03.162Z,21.67
2017-11-15T21:55:29.930Z,20.50
2017-11-15T21:57:56.687Z,19.20
2017-11-15T22:00:23.406Z,17.70
2017-11-15T22:02:50.241Z,18.00
2017-11-15T22:05:16.985Z,18.97
2017-11-15T22:07:43.718Z,17.40
2017-11-15T22:10:10.586Z,17.30
2017-11-15T22:12:37.342Z,17.43
2017-11-15T22:15:04.102Z,16.67
2017-11-15T22:17:30.868Z,17.33
2017-11-15T22:19:57.604Z,17.30
2017-11-15T22:22:24.326Z,18.13
2017-11-15T22:24:51.071Z,19.27
2017-11-15T22:27:17.800Z,18.13
2017-11-15T22:29:44.525Z,17.57
2017-11-15T22:32:11.263Z,19.03
2017-11-15T22:34:38.024Z,17.57
2017-11-15T22:37:04.781Z,16.23
2017-11-15T22:39:31.532Z,18.07
2017-11-15T22:41:58.260Z,18.27
2017-11-15T22:44:25.021Z,18.07
2017-11-15T22:46:51.798Z,18.60
2017-11-15T22:49:18.519Z,18.03
2017-11-15T22:51:45.245Z,17.17
2017-11-15T22:54:12.043Z,17.53
2017-11-15T22:56:38.773Z,18.03
2017-11-15T22:59:05.504Z,17.60
2017-11-15T23:01:32.316Z,17.77
2017-11-15T23:03:59.047Z,17.30
2017-11-15T23:06:25.892Z,16.63
2017-11-15T23:08:52.654Z,16.93
2017-11-15T23:11:19.381Z,17.17
2017-11-15T23:13:46.110Z,16.47
2017-11-15T23:16:12.850Z,18.43
2017-11-15T23:18:39.578Z,16.03
2017-11-15T23:21:06.303Z,16.80
2017-11-15T23:23:33.058Z,17.43
2017-11-15T23:25:59.793Z,17.33
2017-11-15T23:28:26.529Z,15.63
2017-11-15T23:30:53.525Z,17.47
2017-11-15T23:33:20.255Z,17.03
2017-11-15T23:35:46.976Z,17.13
2017-11-15T23:38:13.728Z,17.00
2017-11-15T23:40:40.458Z,16.00
2017-11-15T23:43:07.312Z,16.50
2017-11-15T23:45:34.062Z,16.53
2017-11-15T23:48:00.792Z,16.50
2017-11-15T23:50:27.521Z,17.23
2017-11-15T23:52:54.257Z,17.03
2017-11-15T23:55:20.988Z,16.97
2017-11-15T23:57:47.743Z,15.30
